sensor_id;sensor_type;location;lat;lon;timestamp;P1;durP1;ratioP1;P2;durP2;ratioP2
2872;SDS011;1444;49.166;7.312;2022-09-01T00:00:05;14.37;;;10.33;;
2872;SDS011;1444;49.166;7.312;2022-09-01T00:02:35;13.30;;;8.43;;
2872;SDS011;1444;49.166;7.312;2022-09-01T00:05:02;22.87;;;13.63;;
2872;SDS011;1444;49.166;7.312;2022-09-01T00:07:31;15.73;;;10.48;;
2872;SDS011;1444;49.166;7.312;2022-09-01T00:09:59;23.63;;;13.67;;
2872;SDS011;1444;49.166;7.312;2022-09-01T00:12:28;14.40;;;9.83;;
2872;SDS011;1444;49.166;7.312;2022-09-01T00:14:55;21.60;;;13.37;;
2872;SDS011;1444;49.166;7.312;2022-09-01T00:17:22;18.63;;;10.70;;
2872;SDS011;1444;49.166;7.312;2022-09-01T00:19:49;12.57;;;8.83;;
2872;SDS011;1444;49.166;7.312;2022-09-01T00:22:16;16.20;;;10.43;;
2872;SDS011;1444;49.166;7.312;2022-09-01T00:24:43;13.82;;;9.77;;
2872;SDS011;1444;49.166;7.312;2022-09-01T00:27:09;11.43;;;8.70;;
2872;SDS011;1444;49.166;7.312;2022-09-01T00:29:37;12.80;;;8.60;;
2872;SDS011;1444;49.166;7.312;2022-09-01T00:32:04;18.60;;;11.60;;
2872;SDS011;1444;49.166;7.312;2022-09-01T00:34:31;25.63;;;12.53;;
2872;SDS011;1444;49.166;7.312;2022-09-01T00:36:58;21.80;;;13.37;;
2872;SDS011;1444;49.166;7.312;2022-09-01T00:39:24;18.97;;;11.40;;
2872;SDS011;1444;49.166;7.312;2022-09-01T00:41:51;20.57;;;12.30;;
2872;SDS011;1444;49.166;7.312;2022-09-01T00:44:19;17.92;;;12.18;;
2872;SDS011;1444;49.166;7.312;2022-09-01T00:46:53;18.03;;;11.17;;
2872;SDS011;1444;49.166;7.312;2022-09-01T00:49:21;15.27;;;8.57;;
2872;SDS011;1444;49.166;7.312;2022-09-01T00:51:54;26.17;;;15.17;;
2872;SDS011;1444;49.166;7.312;2022-09-01T00:54:26;15.93;;;10.70;;
2872;SDS011;1444;49.166;7.312;2022-09-01T00:56:55;25.30;;;13.50;;
2872;SDS011;1444;49.166;7.312;2022-09-01T00:59:22;18.47;;;11.97;;
2872;SDS011;1444;49.166;7.312;2022-09-01T01:01:52;14.90;;;10.20;;
2872;SDS011;1444;49.166;7.312;2022-09-01T01:04:19;29.80;;;11.63;;
2872;SDS011;1444;49.166;7.312;2022-09-01T01:06:46;18.93;;;11.97;;
2872;SDS011;1444;49.166;7.312;2022-09-01T01:09:22;15.30;;;10.37;;
2872;SDS011;1444;49.166;7.312;2022-09-01T01:11:50;29.00;;;15.45;;
2872;SDS011;1444;49.166;7.312;2022-09-01T01:14:18;23.10;;;12.00;;
2872;SDS011;1444;49.166;7.312;2022-09-01T01:16:46;14.53;;;9.73;;
2872;SDS011;1444;49.166;7.312;2022-09-01T01:19:19;20.17;;;11.90;;
2872;SDS011;1444;49.166;7.312;2022-09-01T01:22:07;22.80;;;13.17;;
2872;SDS011;1444;49.166;7.312;2022-09-01T01:24:57;27.83;;;15.50;;
2872;SDS011;1444;49.166;7.312;2022-09-01T01:27:29;16.00;;;10.70;;
2872;SDS011;1444;49.166;7.312;2022-09-01T01:29:57;30.77;;;16.25;;
2872;SDS011;1444;49.166;7.312;2022-09-01T01:32:25;15.30;;;9.77;;
2872;SDS011;1444;49.166;7.312;2022-09-01T01:34:53;22.13;;;11.93;;
2872;SDS011;1444;49.166;7.312;2022-09-01T01:37:20;21.83;;;12.90;;
2872;SDS011;1444;49.166;7.312;2022-09-01T01:39:49;15.57;;;9.53;;
2872;SDS011;1444;49.166;7.312;2022-09-01T01:42:17;16.87;;;11.47;;
2872;SDS011;1444;49.166;7.312;2022-09-01T01:44:44;20.27;;;12.60;;
2872;SDS011;1444;49.166;7.312;2022-09-01T01:47:12;17.90;;;11.60;;
2872;SDS011;1444;49.166;7.312;2022-09-01T01:49:42;13.03;;;9.40;;
2872;SDS011;1444;49.166;7.312;2022-09-01T01:52:09;24.73;;;12.10;;
2872;SDS011;1444;49.166;7.312;2022-09-01T01:54:40;16.20;;;10.80;;
2872;SDS011;1444;49.166;7.312;2022-09-01T01:57:07;16.53;;;10.70;;
2872;SDS011;1444;49.166;7.312;2022-09-01T01:59:36;15.00;;;9.50;;
2872;SDS011;1444;49.166;7.312;2022-09-01T02:02:04;19.83;;;13.00;;
2872;SDS011;1444;49.166;7.312;2022-09-01T02:04:32;17.80;;;10.90;;
2872;SDS011;1444;49.166;7.312;2022-09-01T02:06:59;23.65;;;14.05;;
2872;SDS011;1444;49.166;7.312;2022-09-01T02:09:26;27.25;;;14.10;;
2872;SDS011;1444;49.166;7.312;2022-09-01T02:11:52;21.30;;;13.37;;
2872;SDS011;1444;49.166;7.312;2022-09-01T02:14:22;22.43;;;10.63;;
2872;SDS011;1444;49.166;7.312;2022-09-01T02:16:50;22.97;;;13.20;;
2872;SDS011;1444;49.166;7.312;2022-09-01T02:19:20;21.70;;;13.87;;
2872;SDS011;1444;49.166;7.312;2022-09-01T02:21:47;15.73;;;11.17;;
2872;SDS011;1444;49.166;7.312;2022-09-01T02:24:18;19.63;;;10.43;;
2872;SDS011;1444;49.166;7.312;2022-09-01T02:26:45;13.10;;;9.43;;
2872;SDS011;1444;49.166;7.312;2022-09-01T02:29:14;15.10;;;10.50;;
2872;SDS011;1444;49.166;7.312;2022-09-01T02:31:44;17.07;;;10.73;;
2872;SDS011;1444;49.166;7.312;2022-09-01T02:34:13;17.17;;;11.03;;
2872;SDS011;1444;49.166;7.312;2022-09-01T02:36:41;15.10;;;9.57;;
2872;SDS011;1444;49.166;7.312;2022-09-01T02:39:11;19.52;;;12.35;;
2872;SDS011;1444;49.166;7.312;2022-09-01T02:41:38;14.47;;;9.67;;
2872;SDS011;1444;49.166;7.312;2022-09-01T02:44:05;23.50;;;13.75;;
2872;SDS011;1444;49.166;7.312;2022-09-01T02:46:35;12.90;;;9.10;;
2872;SDS011;1444;49.166;7.312;2022-09-01T02:49:06;18.97;;;12.07;;
2872;SDS011;1444;49.166;7.312;2022-09-01T02:51:40;16.50;;;10.50;;
2872;SDS011;1444;49.166;7.312;2022-09-01T02:54:08;20.40;;;11.47;;
2872;SDS011;1444;49.166;7.312;2022-09-01T02:56:37;20.10;;;12.20;;
2872;SDS011;1444;49.166;7.312;2022-09-01T02:59:04;28.38;;;15.07;;
2872;SDS011;1444;49.166;7.312;2022-09-01T03:01:37;20.93;;;10.83;;
2872;SDS011;1444;49.166;7.312;2022-09-01T03:04:04;26.08;;;14.73;;
2872;SDS011;1444;49.166;7.312;2022-09-01T03:06:34;21.02;;;12.48;;
2872;SDS011;1444;49.166;7.312;2022-09-01T03:09:04;17.30;;;11.53;;
2872;SDS011;1444;49.166;7.312;2022-09-01T03:11:33;19.03;;;11.53;;
2872;SDS011;1444;49.166;7.312;2022-09-01T03:14:02;28.38;;;16.48;;
2872;SDS011;1444;49.166;7.312;2022-09-01T03:16:29;21.63;;;12.13;;
2872;SDS011;1444;49.166;7.312;2022-09-01T03:18:57;26.87;;;16.50;;
2872;SDS011;1444;49.166;7.312;2022-09-01T03:21:24;22.27;;;11.60;;
2872;SDS011;1444;49.166;7.312;2022-09-01T03:23:51;29.40;;;14.80;;
2872;SDS011;1444;49.166;7.312;2022-09-01T03:26:20;16.77;;;10.90;;
2872;SDS011;1444;49.166;7.312;2022-09-01T03:28:47;15.83;;;9.57;;
2872;SDS011;1444;49.166;7.312;2022-09-01T03:31:15;23.30;;;12.73;;
2872;SDS011;1444;49.166;7.312;2022-09-01T03:33:42;16.63;;;10.33;;
2872;SDS011;1444;49.166;7.312;2022-09-01T03:36:09;22.53;;;12.00;;
2872;SDS011;1444;49.166;7.312;2022-09-01T03:38:43;20.63;;;10.63;;
2872;SDS011;1444;49.166;7.312;2022-09-01T03:41:12;19.27;;;12.10;;
2872;SDS011;1444;49.166;7.312;2022-09-01T03:43:44;19.47;;;10.40;;
2872;SDS011;1444;49.166;7.312;2022-09-01T03:46:11;18.87;;;12.07;;
2872;SDS011;1444;49.166;7.312;2022-09-01T03:48:44;21.80;;;12.00;;
2872;SDS011;1444;49.166;7.312;2022-09-01T03:51:12;16.80;;;10.93;;
2872;SDS011;1444;49.166;7.312;2022-09-01T03:53:39;16.20;;;10.80;;
2872;SDS011;1444;49.166;7.312;2022-09-01T03:56:05;23.10;;;13.87;;
2872;SDS011;1444;49.166;7.312;2022-09-01T03:58:33;24.37;;;13.60;;
2872;SDS011;1444;49.166;7.312;2022-09-01T04:01:01;28.70;;;16.63;;
2872;SDS011;1444;49.166;7.312;2022-09-01T04:03:29;19.03;;;12.40;;
2872;SDS011;1444;49.166;7.312;2022-09-01T04:05:58;28.07;;;16.10;;
2872;SDS011;1444;49.166;7.312;2022-09-01T04:08:26;21.83;;;11.88;;
2872;SDS011;1444;49.166;7.312;2022-09-01T04:10:55;19.90;;;11.53;;
2872;SDS011;1444;49.166;7.312;2022-09-01T04:13:25;22.57;;;14.47;;
2872;SDS011;1444;49.166;7.312;2022-09-01T04:15:54;29.75;;;16.30;;
2872;SDS011;1444;49.166;7.312;2022-09-01T04:18:22;24.20;;;10.93;;
2872;SDS011;1444;49.166;7.312;2022-09-01T04:20:50;26.07;;;13.07;;
2872;SDS011;1444;49.166;7.312;2022-09-01T04:23:19;25.73;;;13.90;;
2872;SDS011;1444;49.166;7.312;2022-09-01T04:25:50;22.97;;;13.17;;
2872;SDS011;1444;49.166;7.312;2022-09-01T04:28:18;24.40;;;13.30;;
2872;SDS011;1444;49.166;7.312;2022-09-01T04:30:49;20.40;;;12.30;;
2872;SDS011;1444;49.166;7.312;2022-09-01T04:33:17;32.85;;;17.70;;
2872;SDS011;1444;49.166;7.312;2022-09-01T04:35:46;19.17;;;12.70;;
2872;SDS011;1444;49.166;7.312;2022-09-01T04:38:13;18.63;;;11.77;;
2872;SDS011;1444;49.166;7.312;2022-09-01T04:40:41;16.50;;;10.33;;
2872;SDS011;1444;49.166;7.312;2022-09-01T04:43:08;22.23;;;12.60;;
2872;SDS011;1444;49.166;7.312;2022-09-01T04:45:35;18.20;;;10.33;;
2872;SDS011;1444;49.166;7.312;2022-09-01T04:48:02;25.83;;;15.20;;
2872;SDS011;1444;49.166;7.312;2022-09-01T04:50:29;23.57;;;13.10;;
2872;SDS011;1444;49.166;7.312;2022-09-01T04:52:58;26.73;;;15.00;;
2872;SDS011;1444;49.166;7.312;2022-09-01T04:55:26;21.10;;;11.80;;
2872;SDS011;1444;49.166;7.312;2022-09-01T04:57:54;26.90;;;15.03;;
2872;SDS011;1444;49.166;7.312;2022-09-01T05:00:22;20.50;;;10.30;;
2872;SDS011;1444;49.166;7.312;2022-09-01T05:02:51;26.03;;;15.00;;
2872;SDS011;1444;49.166;7.312;2022-09-01T05:05:20;29.47;;;11.33;;
2872;SDS011;1444;49.166;7.312;2022-09-01T05:07:48;25.90;;;12.77;;
2872;SDS011;1444;49.166;7.312;2022-09-01T05:10:18;25.50;;;14.80;;
2872;SDS011;1444;49.166;7.312;2022-09-01T05:12:45;20.80;;;11.13;;
2872;SDS011;1444;49.166;7.312;2022-09-01T05:15:13;19.53;;;11.73;;
2872;SDS011;1444;49.166;7.312;2022-09-01T05:17:41;18.70;;;11.10;;
2872;SDS011;1444;49.166;7.312;2022-09-01T05:20:09;17.60;;;11.23;;
2872;SDS011;1444;49.166;7.312;2022-09-01T05:22:37;18.53;;;10.97;;
2872;SDS011;1444;49.166;7.312;2022-09-01T05:25:05;25.30;;;12.97;;
2872;SDS011;1444;49.166;7.312;2022-09-01T05:27:38;15.03;;;9.30;;
2872;SDS011;1444;49.166;7.312;2022-09-01T05:30:06;22.67;;;12.67;;
2872;SDS011;1444;49.166;7.312;2022-09-01T05:32:34;28.37;;;12.67;;
2872;SDS011;1444;49.166;7.312;2022-09-01T05:35:04;27.60;;;14.88;;
2872;SDS011;1444;49.166;7.312;2022-09-01T05:37:32;30.07;;;12.53;;
2872;SDS011;1444;49.166;7.312;2022-09-01T05:40:01;26.57;;;13.70;;
2872;SDS011;1444;49.166;7.312;2022-09-01T05:42:29;18.53;;;11.83;;
2872;SDS011;1444;49.166;7.312;2022-09-01T05:44:57;33.13;;;16.83;;
2872;SDS011;1444;49.166;7.312;2022-09-01T05:47:26;19.50;;;11.17;;
2872;SDS011;1444;49.166;7.312;2022-09-01T05:49:52;29.07;;;15.50;;
2872;SDS011;1444;49.166;7.312;2022-09-01T05:52:20;21.37;;;11.73;;
2872;SDS011;1444;49.166;7.312;2022-09-01T05:54:50;23.33;;;14.57;;
2872;SDS011;1444;49.166;7.312;2022-09-01T05:57:17;22.27;;;13.10;;
2872;SDS011;1444;49.166;7.312;2022-09-01T05:59:44;18.13;;;11.73;;
2872;SDS011;1444;49.166;7.312;2022-09-01T06:02:18;19.07;;;11.67;;
2872;SDS011;1444;49.166;7.312;2022-09-01T06:04:45;22.33;;;13.80;;
2872;SDS011;1444;49.166;7.312;2022-09-01T06:07:13;21.70;;;12.70;;
2872;SDS011;1444;49.166;7.312;2022-09-01T06:09:42;14.90;;;10.43;;
2872;SDS011;1444;49.166;7.312;2022-09-01T06:12:10;43.07;;;25.10;;
2872;SDS011;1444;49.166;7.312;2022-09-01T06:14:41;17.50;;;11.93;;
2872;SDS011;1444;49.166;7.312;2022-09-01T06:17:08;25.47;;;15.60;;
2872;SDS011;1444;49.166;7.312;2022-09-01T06:19:37;14.33;;;10.87;;
2872;SDS011;1444;49.166;7.312;2022-09-01T06:22:05;22.07;;;15.07;;
2872;SDS011;1444;49.166;7.312;2022-09-01T06:24:34;26.60;;;14.67;;
2872;SDS011;1444;49.166;7.312;2022-09-01T06:27:01;25.00;;;14.17;;
2872;SDS011;1444;49.166;7.312;2022-09-01T06:29:29;17.33;;;11.67;;
2872;SDS011;1444;49.166;7.312;2022-09-01T06:31:56;22.20;;;14.80;;
2872;SDS011;1444;49.166;7.312;2022-09-01T06:34:23;17.60;;;12.57;;
2872;SDS011;1444;49.166;7.312;2022-09-01T06:36:51;17.67;;;10.90;;
2872;SDS011;1444;49.166;7.312;2022-09-01T06:39:18;16.60;;;11.50;;
2872;SDS011;1444;49.166;7.312;2022-09-01T06:41:45;14.63;;;10.80;;
2872;SDS011;1444;49.166;7.312;2022-09-01T06:44:16;14.60;;;11.00;;
2872;SDS011;1444;49.166;7.312;2022-09-01T06:46:47;14.80;;;10.23;;
2872;SDS011;1444;49.166;7.312;2022-09-01T06:49:14;12.07;;;10.13;;
2872;SDS011;1444;49.166;7.312;2022-09-01T06:51:40;10.60;;;8.90;;
2872;SDS011;1444;49.166;7.312;2022-09-01T06:54:08;9.90;;;8.80;;
2872;SDS011;1444;49.166;7.312;2022-09-01T06:56:38;8.47;;;7.67;;
2872;SDS011;1444;49.166;7.312;2022-09-01T06:59:05;9.30;;;8.37;;
2872;SDS011;1444;49.166;7.312;2022-09-01T07:01:32;10.20;;;8.95;;
2872;SDS011;1444;49.166;7.312;2022-09-01T07:03:59;14.10;;;10.55;;
2872;SDS011;1444;49.166;7.312;2022-09-01T07:06:26;11.07;;;8.77;;
2872;SDS011;1444;49.166;7.312;2022-09-01T07:08:53;13.43;;;10.37;;
2872;SDS011;1444;49.166;7.312;2022-09-01T07:11:22;12.80;;;9.10;;
2872;SDS011;1444;49.166;7.312;2022-09-01T07:13:52;15.17;;;8.30;;
2872;SDS011;1444;49.166;7.312;2022-09-01T07:16:20;12.23;;;9.50;;
2872;SDS011;1444;49.166;7.312;2022-09-01T07:18:48;10.77;;;8.23;;
2872;SDS011;1444;49.166;7.312;2022-09-01T07:21:16;9.90;;;8.90;;
2872;SDS011;1444;49.166;7.312;2022-09-01T07:23:43;11.83;;;8.30;;
2872;SDS011;1444;49.166;7.312;2022-09-01T07:26:11;10.27;;;8.97;;
2872;SDS011;1444;49.166;7.312;2022-09-01T07:28:45;10.57;;;8.30;;
2872;SDS011;1444;49.166;7.312;2022-09-01T07:31:16;9.57;;;7.97;;
2872;SDS011;1444;49.166;7.312;2022-09-01T07:33:45;16.87;;;10.57;;
2872;SDS011;1444;49.166;7.312;2022-09-01T07:36:13;12.13;;;9.03;;
2872;SDS011;1444;49.166;7.312;2022-09-01T07:38:40;12.20;;;10.33;;
2872;SDS011;1444;49.166;7.312;2022-09-01T07:41:07;12.93;;;10.00;;
2872;SDS011;1444;49.166;7.312;2022-09-01T07:43:35;10.27;;;8.10;;
2872;SDS011;1444;49.166;7.312;2022-09-01T07:46:05;12.50;;;10.20;;
2872;SDS011;1444;49.166;7.312;2022-09-01T07:48:32;10.37;;;8.77;;
2872;SDS011;1444;49.166;7.312;2022-09-01T07:50:59;14.60;;;11.20;;
2872;SDS011;1444;49.166;7.312;2022-09-01T07:53:27;10.80;;;8.47;;
2872;SDS011;1444;49.166;7.312;2022-09-01T07:55:55;19.30;;;12.77;;
2872;SDS011;1444;49.166;7.312;2022-09-01T07:58:24;11.90;;;9.77;;
2872;SDS011;1444;49.166;7.312;2022-09-01T08:00:53;14.63;;;11.30;;
2872;SDS011;1444;49.166;7.312;2022-09-01T08:03:26;16.60;;;10.77;;
2872;SDS011;1444;49.166;7.312;2022-09-01T08:05:54;21.60;;;14.00;;
2872;SDS011;1444;49.166;7.312;2022-09-01T08:08:24;12.50;;;9.53;;
2872;SDS011;1444;49.166;7.312;2022-09-01T08:10:51;18.77;;;12.20;;
2872;SDS011;1444;49.166;7.312;2022-09-01T08:13:18;21.87;;;14.47;;
2872;SDS011;1444;49.166;7.312;2022-09-01T08:15:45;16.27;;;11.03;;
2872;SDS011;1444;49.166;7.312;2022-09-01T08:18:12;13.67;;;9.27;;
2872;SDS011;1444;49.166;7.312;2022-09-01T08:20:41;13.63;;;9.87;;
2872;SDS011;1444;49.166;7.312;2022-09-01T08:23:09;18.00;;;12.17;;
2872;SDS011;1444;49.166;7.312;2022-09-01T08:25:39;18.60;;;11.70;;
2872;SDS011;1444;49.166;7.312;2022-09-01T08:28:08;17.37;;;10.57;;
2872;SDS011;1444;49.166;7.312;2022-09-01T08:30:37;14.67;;;10.90;;
2872;SDS011;1444;49.166;7.312;2022-09-01T08:33:05;21.30;;;13.67;;
2872;SDS011;1444;49.166;7.312;2022-09-01T08:35:32;8.67;;;7.77;;
2872;SDS011;1444;49.166;7.312;2022-09-01T08:38:00;18.20;;;12.00;;
2872;SDS011;1444;49.166;7.312;2022-09-01T08:40:27;13.30;;;9.50;;
2872;SDS011;1444;49.166;7.312;2022-09-01T08:42:56;19.07;;;12.63;;
2872;SDS011;1444;49.166;7.312;2022-09-01T08:45:32;11.60;;;9.00;;
2872;SDS011;1444;49.166;7.312;2022-09-01T08:48:08;13.93;;;9.57;;
2872;SDS011;1444;49.166;7.312;2022-09-01T08:50:41;17.53;;;10.33;;
2872;SDS011;1444;49.166;7.312;2022-09-01T08:53:14;43.37;;;26.37;;
2872;SDS011;1444;49.166;7.312;2022-09-01T08:55:47;16.17;;;10.20;;
2872;SDS011;1444;49.166;7.312;2022-09-01T08:58:18;17.33;;;10.83;;
2872;SDS011;1444;49.166;7.312;2022-09-01T09:00:46;13.37;;;8.90;;
2872;SDS011;1444;49.166;7.312;2022-09-01T09:03:20;17.45;;;10.70;;
2872;SDS011;1444;49.166;7.312;2022-09-01T09:05:58;15.03;;;8.80;;
2872;SDS011;1444;49.166;7.312;2022-09-01T09:08:42;14.60;;;9.17;;
2872;SDS011;1444;49.166;7.312;2022-09-01T09:11:21;9.67;;;7.10;;
2872;SDS011;1444;49.166;7.312;2022-09-01T09:14:04;18.10;;;12.67;;
2872;SDS011;1444;49.166;7.312;2022-09-01T09:16:39;13.83;;;9.00;;
2872;SDS011;1444;49.166;7.312;2022-09-01T09:19:08;14.73;;;9.27;;
2872;SDS011;1444;49.166;7.312;2022-09-01T09:21:38;13.30;;;8.33;;
2872;SDS011;1444;49.166;7.312;2022-09-01T09:24:09;15.67;;;11.10;;
2872;SDS011;1444;49.166;7.312;2022-09-01T09:26:46;13.63;;;9.13;;
2872;SDS011;1444;49.166;7.312;2022-09-01T09:29:14;15.03;;;9.63;;
2872;SDS011;1444;49.166;7.312;2022-09-01T09:31:40;14.23;;;10.93;;
2872;SDS011;1444;49.166;7.312;2022-09-01T09:34:17;14.40;;;9.30;;
2872;SDS011;1444;49.166;7.312;2022-09-01T09:36:56;22.70;;;13.17;;
2872;SDS011;1444;49.166;7.312;2022-09-01T09:39:28;15.35;;;10.07;;
2872;SDS011;1444;49.166;7.312;2022-09-01T09:42:02;18.97;;;12.93;;
2872;SDS011;1444;49.166;7.312;2022-09-01T09:44:33;16.33;;;9.47;;
2872;SDS011;1444;49.166;7.312;2022-09-01T09:47:05;18.33;;;10.70;;
2872;SDS011;1444;49.166;7.312;2022-09-01T09:49:35;13.57;;;9.40;;
2872;SDS011;1444;49.166;7.312;2022-09-01T09:52:13;18.80;;;11.03;;
2872;SDS011;1444;49.166;7.312;2022-09-01T09:54:56;17.47;;;10.20;;
2872;SDS011;1444;49.166;7.312;2022-09-01T09:57:27;11.17;;;8.10;;
2872;SDS011;1444;49.166;7.312;2022-09-01T09:59:56;20.80;;;13.80;;
2872;SDS011;1444;49.166;7.312;2022-09-01T10:02:27;15.73;;;11.70;;
2872;SDS011;1444;49.166;7.312;2022-09-01T10:04:59;15.93;;;10.17;;
2872;SDS011;1444;49.166;7.312;2022-09-01T10:07:28;17.90;;;10.83;;
2872;SDS011;1444;49.166;7.312;2022-09-01T10:09:59;18.40;;;12.13;;
2872;SDS011;1444;49.166;7.312;2022-09-01T10:12:29;15.07;;;10.20;;
2872;SDS011;1444;49.166;7.312;2022-09-01T10:14:57;25.27;;;14.80;;
2872;SDS011;1444;49.166;7.312;2022-09-01T10:17:28;14.57;;;9.00;;
2872;SDS011;1444;49.166;7.312;2022-09-01T10:19:59;20.40;;;12.97;;
2872;SDS011;1444;49.166;7.312;2022-09-01T10:22:31;16.23;;;10.60;;
2872;SDS011;1444;49.166;7.312;2022-09-01T10:25:01;16.30;;;11.03;;
2872;SDS011;1444;49.166;7.312;2022-09-01T10:27:30;19.17;;;11.17;;
2872;SDS011;1444;49.166;7.312;2022-09-01T10:30:04;15.37;;;9.27;;
2872;SDS011;1444;49.166;7.312;2022-09-01T10:32:33;19.90;;;11.37;;
2872;SDS011;1444;49.166;7.312;2022-09-01T10:35:04;19.97;;;12.90;;
2872;SDS011;1444;49.166;7.312;2022-09-01T10:37:32;16.10;;;9.80;;
2872;SDS011;1444;49.166;7.312;2022-09-01T10:40:12;25.40;;;13.50;;
2872;SDS011;1444;49.166;7.312;2022-09-01T10:42:45;10.63;;;7.50;;
2872;SDS011;1444;49.166;7.312;2022-09-01T10:45:19;14.77;;;10.07;;
2872;SDS011;1444;49.166;7.312;2022-09-01T10:47:56;17.70;;;10.80;;
2872;SDS011;1444;49.166;7.312;2022-09-01T10:50:37;12.23;;;7.07;;
2872;SDS011;1444;49.166;7.312;2022-09-01T10:53:05;19.47;;;9.70;;
2872;SDS011;1444;49.166;7.312;2022-09-01T11:07:36;13.23;;;9.00;;
2872;SDS011;1444;49.166;7.312;2022-09-01T11:10:11;15.27;;;9.10;;
2872;SDS011;1444;49.166;7.312;2022-09-01T11:12:56;15.23;;;9.63;;
2872;SDS011;1444;49.166;7.312;2022-09-01T11:15:39;10.10;;;6.17;;
2872;SDS011;1444;49.166;7.312;2022-09-01T11:18:14;11.20;;;8.57;;
2872;SDS011;1444;49.166;7.312;2022-09-01T11:20:44;5.97;;;5.37;;
2872;SDS011;1444;49.166;7.312;2022-09-01T11:23:20;16.13;;;11.27;;
2872;SDS011;1444;49.166;7.312;2022-09-01T11:25:49;17.07;;;11.67;;
2872;SDS011;1444;49.166;7.312;2022-09-01T11:33:52;24.50;;;13.30;;
2872;SDS011;1444;49.166;7.312;2022-09-01T11:36:28;14.17;;;8.20;;
2872;SDS011;1444;49.166;7.312;2022-09-01T11:39:03;19.00;;;12.47;;
2872;SDS011;1444;49.166;7.312;2022-09-01T11:41:33;11.73;;;8.90;;
2872;SDS011;1444;49.166;7.312;2022-09-01T11:44:18;16.83;;;10.80;;
2872;SDS011;1444;49.166;7.312;2022-09-01T11:46:49;14.37;;;9.30;;
2872;SDS011;1444;49.166;7.312;2022-09-01T11:49:24;21.00;;;11.23;;
2872;SDS011;1444;49.166;7.312;2022-09-01T11:51:53;11.33;;;8.13;;
2872;SDS011;1444;49.166;7.312;2022-09-01T11:54:21;12.70;;;8.10;;
2872;SDS011;1444;49.166;7.312;2022-09-01T11:56:49;14.20;;;9.50;;
2872;SDS011;1444;49.166;7.312;2022-09-01T11:59:29;9.10;;;6.93;;
2872;SDS011;1444;49.166;7.312;2022-09-01T12:01:58;17.00;;;10.73;;
2872;SDS011;1444;49.166;7.312;2022-09-01T12:04:29;9.50;;;6.93;;
2872;SDS011;1444;49.166;7.312;2022-09-01T12:06:58;10.27;;;7.90;;
2872;SDS011;1444;49.166;7.312;2022-09-01T12:09:30;9.13;;;7.37;;
2872;SDS011;1444;49.166;7.312;2022-09-01T12:11:58;5.23;;;4.73;;
2872;SDS011;1444;49.166;7.312;2022-09-01T12:14:25;7.30;;;6.07;;
2872;SDS011;1444;49.166;7.312;2022-09-01T12:16:57;15.27;;;9.90;;
2872;SDS011;1444;49.166;7.312;2022-09-01T12:19:26;13.30;;;7.33;;
2872;SDS011;1444;49.166;7.312;2022-09-01T12:21:57;17.93;;;11.80;;
2872;SDS011;1444;49.166;7.312;2022-09-01T12:24:26;9.97;;;7.37;;
2872;SDS011;1444;49.166;7.312;2022-09-01T12:26:56;18.27;;;11.95;;
2872;SDS011;1444;49.166;7.312;2022-09-01T12:29:25;8.07;;;6.40;;
2872;SDS011;1444;49.166;7.312;2022-09-01T12:31:52;14.00;;;9.47;;
2872;SDS011;1444;49.166;7.312;2022-09-01T12:34:36;11.63;;;8.13;;
2872;SDS011;1444;49.166;7.312;2022-09-01T12:37:06;10.03;;;7.63;;
2872;SDS011;1444;49.166;7.312;2022-09-01T12:39:35;4.67;;;4.20;;
2872;SDS011;1444;49.166;7.312;2022-09-01T12:42:05;7.60;;;5.10;;
2872;SDS011;1444;49.166;7.312;2022-09-01T12:44:42;10.70;;;6.57;;
2872;SDS011;1444;49.166;7.312;2022-09-01T12:47:11;9.63;;;7.43;;
2872;SDS011;1444;49.166;7.312;2022-09-01T12:50:02;14.70;;;9.90;;
2872;SDS011;1444;49.166;7.312;2022-09-01T12:52:31;9.40;;;7.53;;
2872;SDS011;1444;49.166;7.312;2022-09-01T12:55:07;5.75;;;4.78;;
2872;SDS011;1444;49.166;7.312;2022-09-01T12:57:45;5.00;;;4.53;;
2872;SDS011;1444;49.166;7.312;2022-09-01T13:00:16;4.60;;;4.18;;
2872;SDS011;1444;49.166;7.312;2022-09-01T13:02:45;5.03;;;4.13;;
2872;SDS011;1444;49.166;7.312;2022-09-01T13:05:18;5.90;;;5.30;;
2872;SDS011;1444;49.166;7.312;2022-09-01T13:07:46;6.93;;;5.90;;
2872;SDS011;1444;49.166;7.312;2022-09-01T13:10:13;13.10;;;9.60;;
2872;SDS011;1444;49.166;7.312;2022-09-01T13:12:40;5.40;;;4.90;;
2872;SDS011;1444;49.166;7.312;2022-09-01T13:15:08;6.40;;;5.10;;
2872;SDS011;1444;49.166;7.312;2022-09-01T13:17:36;18.33;;;10.13;;
2872;SDS011;1444;49.166;7.312;2022-09-01T13:20:03;8.37;;;6.87;;
2872;SDS011;1444;49.166;7.312;2022-09-01T13:22:31;7.83;;;5.50;;
2872;SDS011;1444;49.166;7.312;2022-09-01T13:24:58;10.50;;;7.00;;
2872;SDS011;1444;49.166;7.312;2022-09-01T13:27:25;6.07;;;4.47;;
2872;SDS011;1444;49.166;7.312;2022-09-01T13:29:52;9.00;;;5.33;;
2872;SDS011;1444;49.166;7.312;2022-09-01T13:32:20;5.20;;;4.77;;
2872;SDS011;1444;49.166;7.312;2022-09-01T13:34:48;4.60;;;4.20;;
2872;SDS011;1444;49.166;7.312;2022-09-01T13:37:15;4.50;;;4.10;;
2872;SDS011;1444;49.166;7.312;2022-09-01T13:39:43;5.47;;;4.97;;
2872;SDS011;1444;49.166;7.312;2022-09-01T13:42:11;4.97;;;4.30;;
2872;SDS011;1444;49.166;7.312;2022-09-01T13:44:38;8.70;;;6.40;;
2872;SDS011;1444;49.166;7.312;2022-09-01T13:47:05;7.30;;;6.40;;
2872;SDS011;1444;49.166;7.312;2022-09-01T13:49:32;4.80;;;4.40;;
2872;SDS011;1444;49.166;7.312;2022-09-01T13:51:58;4.73;;;4.33;;
2872;SDS011;1444;49.166;7.312;2022-09-01T13:54:25;5.73;;;5.20;;
2872;SDS011;1444;49.166;7.312;2022-09-01T13:56:53;5.43;;;4.93;;
2872;SDS011;1444;49.166;7.312;2022-09-01T13:59:20;5.30;;;3.97;;
2872;SDS011;1444;49.166;7.312;2022-09-01T14:01:46;5.20;;;4.70;;
2872;SDS011;1444;49.166;7.312;2022-09-01T14:04:14;4.77;;;4.37;;
2872;SDS011;1444;49.166;7.312;2022-09-01T14:06:41;4.50;;;4.10;;
2872;SDS011;1444;49.166;7.312;2022-09-01T14:09:10;5.03;;;4.53;;
2872;SDS011;1444;49.166;7.312;2022-09-01T14:11:36;5.30;;;4.80;;
2872;SDS011;1444;49.166;7.312;2022-09-01T14:14:04;5.60;;;4.37;;
2872;SDS011;1444;49.166;7.312;2022-09-01T14:16:32;4.77;;;4.37;;
2872;SDS011;1444;49.166;7.312;2022-09-01T14:18:59;4.20;;;3.80;;
2872;SDS011;1444;49.166;7.312;2022-09-01T14:21:25;10.63;;;4.00;;
2872;SDS011;1444;49.166;7.312;2022-09-01T14:23:52;6.40;;;4.53;;
2872;SDS011;1444;49.166;7.312;2022-09-01T14:26:19;5.47;;;5.00;;
2872;SDS011;1444;49.166;7.312;2022-09-01T14:28:46;5.60;;;5.10;;
2872;SDS011;1444;49.166;7.312;2022-09-01T14:31:16;4.70;;;4.30;;
2872;SDS011;1444;49.166;7.312;2022-09-01T14:33:43;4.17;;;3.87;;
2872;SDS011;1444;49.166;7.312;2022-09-01T14:36:15;7.27;;;4.67;;
2872;SDS011;1444;49.166;7.312;2022-09-01T14:38:43;4.70;;;4.30;;
2872;SDS011;1444;49.166;7.312;2022-09-01T14:41:11;5.90;;;3.50;;
2872;SDS011;1444;49.166;7.312;2022-09-01T14:43:38;4.43;;;4.03;;
2872;SDS011;1444;49.166;7.312;2022-09-01T14:46:06;5.83;;;4.67;;
2872;SDS011;1444;49.166;7.312;2022-09-01T14:48:36;4.13;;;3.40;;
2872;SDS011;1444;49.166;7.312;2022-09-01T14:51:04;6.97;;;3.33;;
2872;SDS011;1444;49.166;7.312;2022-09-01T14:53:32;5.70;;;4.30;;
2872;SDS011;1444;49.166;7.312;2022-09-01T14:55:59;6.07;;;4.43;;
2872;SDS011;1444;49.166;7.312;2022-09-01T14:58:27;3.77;;;3.20;;
2872;SDS011;1444;49.166;7.312;2022-09-01T15:00:54;3.57;;;3.27;;
2872;SDS011;1444;49.166;7.312;2022-09-01T15:03:22;5.60;;;4.00;;
2872;SDS011;1444;49.166;7.312;2022-09-01T15:05:51;5.57;;;4.50;;
2872;SDS011;1444;49.166;7.312;2022-09-01T15:08:18;4.50;;;4.10;;
2872;SDS011;1444;49.166;7.312;2022-09-01T15:10:47;101.60;;;11.67;;
2872;SDS011;1444;49.166;7.312;2022-09-01T15:13:14;3.93;;;3.60;;
2872;SDS011;1444;49.166;7.312;2022-09-01T15:15:41;4.47;;;4.10;;
2872;SDS011;1444;49.166;7.312;2022-09-01T15:18:07;3.63;;;2.90;;
2872;SDS011;1444;49.166;7.312;2022-09-01T15:20:37;4.90;;;3.70;;
2872;SDS011;1444;49.166;7.312;2022-09-01T15:23:12;4.90;;;4.17;;
2872;SDS011;1444;49.166;7.312;2022-09-01T15:25:40;3.90;;;3.43;;